Time;durP1;ratioP1;P1;durP2;ratioP2;P2;SDS_P1;SDS_P2;PMS_P1;PMS_P2;Temp;Humidity;BMP_temperature;BMP_pressure;BME280_temperature;BME280_humidity;BME280_pressure;Samples;Min_cycle;Max_cycle;Signal;HPM_P1;HPM_P2
2022/09/08 00:02:02;;;;;;;6.88;2.90;;;19.60;99.90;;;;;;5031119;28;20037;-83
2022/09/08 00:04:28;;;;;;;4.88;2.65;;;19.60;99.90;;;;;;5013403;28;20037;-84
2022/09/08 00:06:54;;;;;;;9.43;2.85;;;19.60;99.90;;;;;;5013092;28;20034;-83
2022/09/08 00:09:20;;;;;;;6.55;2.92;;;19.60;99.90;;;;;;5013168;28;20116;-83
2022/09/08 00:11:46;;;;;;;5.03;2.65;;;19.60;99.90;;;;;;4997022;28;20572;-83
2022/09/08 00:14:12;;;;;;;5.85;2.70;;;19.70;99.90;;;;;;5013276;28;20052;-83
2022/09/08 00:16:41;;;;;;;6.68;2.90;;;19.70;99.90;;;;;;5030689;28;20466;-83
2022/09/08 00:19:06;;;;;;;6.70;2.78;;;19.70;99.90;;;;;;5013143;28;20394;-83
2022/09/08 00:21:32;;;;;;;6.38;2.95;;;19.70;99.90;;;;;;5030911;28;20025;-84
2022/09/08 00:23:58;;;;;;;5.05;2.65;;;19.70;99.90;;;;;;5030681;28;20025;-83
2022/09/08 00:26:24;;;;;;;6.15;2.60;;;19.70;99.90;;;;;;5030683;28;20029;-83
2022/09/08 00:28:50;;;;;;;6.18;2.78;;;19.80;99.90;;;;;;5030602;28;20033;-83
2022/09/08 00:31:16;;;;;;;5.60;2.58;;;19.80;99.90;;;;;;5030814;28;20324;-83
2022/09/08 00:33:42;;;;;;;4.97;2.40;;;19.80;99.90;;;;;;5030741;28;20113;-83
2022/09/08 00:36:14;;;;;;;5.38;2.75;;;19.80;99.90;;;;;;5030309;28;20036;-83
2022/09/08 00:38:40;;;;;;;7.07;2.80;;;19.80;99.90;;;;;;5030503;28;20442;-83
2022/09/08 00:41:10;;;;;;;7.20;2.40;;;19.90;99.90;;;;;;5030601;28;20466;-83
2022/09/08 00:43:42;;;;;;;4.32;2.63;;;19.90;99.90;;;;;;5030732;28;20034;-83
2022/09/08 00:46:14;;;;;;;6.18;2.40;;;19.90;99.90;;;;;;5012830;28;20099;-83
2022/09/08 00:48:49;;;;;;;4.70;2.10;;;19.90;99.90;;;;;;5012947;28;20144;-83
2022/09/08 00:51:16;;;;;;;4.93;2.63;;;19.90;99.90;;;;;;5030512;28;20488;-84
2022/09/08 00:53:44;;;;;;;4.77;2.47;;;19.90;99.90;;;;;;5030666;28;20104;-83
2022/09/08 00:56:10;;;;;;;4.85;2.17;;;19.90;99.90;;;;;;5030211;28;20294;-83
2022/09/08 00:58:38;;;;;;;4.72;2.35;;;19.90;99.90;;;;;;5012730;28;20030;-84
2022/09/08 01:01:05;;;;;;;3.75;2.50;;;19.90;99.90;;;;;;5030447;28;20491;-83
2022/09/08 01:03:31;;;;;;;6.25;2.45;;;19.90;99.90;;;;;;5012670;28;20025;-83
2022/09/08 01:06:18;;;;;;;4.78;2.25;;;19.90;99.90;;;;;;5030405;28;20406;-83
2022/09/08 01:14:46;;;;;;;5.65;2.65;;;20.00;99.90;;;;;;5030179;28;20025;-83
2022/09/08 01:17:26;;;;;;;3.72;2.22;;;20.00;99.90;;;;;;5029799;28;20049;-83
2022/09/08 01:19:53;;;;;;;5.22;2.53;;;20.00;99.90;;;;;;5030057;28;20108;-83
2022/09/08 01:22:58;;;;;;;4.72;2.40;;;20.00;99.90;;;;;;5030460;28;20109;-83
2022/09/08 01:26:09;;;;;;;5.07;2.38;;;20.00;99.90;;;;;;4990019;28;20045;-83
2022/09/08 01:28:46;;;;;;;4.13;2.25;;;20.10;99.90;;;;;;4999297;28;20033;-83
2022/09/08 01:31:12;;;;;;;3.85;2.20;;;20.00;99.90;;;;;;5012635;28;20022;-83
2022/09/08 01:33:39;;;;;;;3.45;2.00;;;20.10;99.90;;;;;;5029989;28;20393;-83
2022/09/08 01:36:09;;;;;;;5.40;2.15;;;20.10;99.90;;;;;;5029768;28;20394;-84
2022/09/08 01:38:35;;;;;;;4.47;2.20;;;20.10;99.90;;;;;;5013725;28;20064;-84
2022/09/08 01:41:01;;;;;;;8.10;2.70;;;20.10;99.90;;;;;;5033860;28;20061;-83
2022/09/08 01:43:26;;;;;;;4.20;2.30;;;20.10;99.90;;;;;;5034152;28;20033;-84
2022/09/08 01:45:55;;;;;;;5.03;1.73;;;20.10;99.90;;;;;;5033467;28;20073;-83
2022/09/08 01:48:21;;;;;;;3.50;1.95;;;20.20;99.90;;;;;;5033590;28;20095;-84
2022/09/08 01:50:47;;;;;;;4.57;1.90;;;20.30;99.90;;;;;;5015786;28;20389;-83
2022/09/08 01:53:13;;;;;;;6.38;2.50;;;20.20;99.90;;;;;;5033585;28;20036;-83
2022/09/08 01:55:39;;;;;;;4.28;2.00;;;20.20;99.90;;;;;;4999113;28;20033;-83
2022/09/08 01:58:04;;;;;;;3.30;1.92;;;20.20;99.90;;;;;;5033442;28;20064;-84
2022/09/08 02:00:30;;;;;;;4.65;2.08;;;20.20;99.90;;;;;;5033144;28;20032;-83
2022/09/08 02:02:56;;;;;;;6.85;2.28;;;20.20;99.90;;;;;;5033311;28;20037;-84
2022/09/08 02:05:22;;;;;;;4.68;2.22;;;20.20;99.90;;;;;;5015517;28;20064;-83
2022/09/08 02:07:48;;;;;;;3.08;1.75;;;20.10;99.90;;;;;;5033290;28;20029;-84
2022/09/08 02:10:14;;;;;;;3.53;1.80;;;20.20;99.90;;;;;;5032998;28;20056;-83
2022/09/08 02:12:39;;;;;;;4.47;2.08;;;20.10;99.90;;;;;;5015806;28;20068;-83
2022/09/08 02:15:06;;;;;;;4.60;2.03;;;20.20;99.90;;;;;;5033011;28;20057;-83
2022/09/08 02:17:32;;;;;;;5.75;2.10;;;20.20;99.90;;;;;;5015222;28;20109;-83
2022/09/08 02:19:58;;;;;;;4.97;2.00;;;20.20;99.90;;;;;;4998980;28;20121;-83
2022/09/08 02:22:24;;;;;;;4.40;2.10;;;20.20;99.90;;;;;;5033167;28;20115;-83
2022/09/08 02:24:50;;;;;;;5.13;2.33;;;20.20;99.90;;;;;;5015167;28;20042;-83
2022/09/08 02:27:15;;;;;;;5.07;2.13;;;20.10;99.90;;;;;;5032700;28;20040;-84
2022/09/08 02:29:41;;;;;;;6.10;2.50;;;20.10;99.90;;;;;;5014814;28;20051;-83
2022/09/08 02:32:07;;;;;;;4.70;2.08;;;20.10;99.90;;;;;;5032749;28;20504;-83
2022/09/08 02:34:33;;;;;;;4.30;1.98;;;20.10;99.90;;;;;;5032570;28;20064;-81
2022/09/08 02:36:59;;;;;;;3.90;2.00;;;20.10;99.90;;;;;;5032546;28;20033;-84
2022/09/08 02:39:24;;;;;;;4.20;2.22;;;20.10;99.90;;;;;;5032590;28;20068;-84
2022/09/08 02:41:50;;;;;;;5.70;2.50;;;20.10;99.90;;;;;;5032617;28;20034;-84
2022/09/08 02:44:16;;;;;;;5.68;2.50;;;20.10;99.90;;;;;;5032603;28;20029;-84
2022/09/08 02:46:44;;;;;;;4.13;2.40;;;20.10;99.90;;;;;;5032465;28;20025;-84
2022/09/08 02:49:10;;;;;;;3.72;2.10;;;20.10;99.90;;;;;;5032069;28;20457;-84
2022/09/08 02:51:36;;;;;;;5.72;2.08;;;20.10;99.90;;;;;;5013918;28;20030;-84
2022/09/08 02:54:03;;;;;;;4.18;2.05;;;20.10;99.90;;;;;;5032330;28;20025;-84
2022/09/08 02:56:29;;;;;;;5.10;2.40;;;20.10;99.90;;;;;;5032202;28;20127;-84
2022/09/08 02:58:55;;;;;;;4.45;2.13;;;20.10;99.90;;;;;;5031976;28;20025;-84
2022/09/08 03:01:21;;;;;;;4.00;2.13;;;20.10;99.90;;;;;;5032262;28;20155;-84
2022/09/08 03:03:48;;;;;;;5.10;2.53;;;20.10;99.90;;;;;;4998194;28;20456;-84
2022/09/08 03:06:14;;;;;;;4.15;2.03;;;20.10;99.90;;;;;;5032002;28;20130;-84
2022/09/08 03:08:40;;;;;;;5.70;2.30;;;20.10;99.90;;;;;;5031898;28;20029;-84
2022/09/08 03:11:07;;;;;;;5.68;2.60;;;20.10;99.90;;;;;;4997894;28;20037;-84
2022/09/08 03:13:33;;;;;;;5.53;2.47;;;20.10;99.90;;;;;;5014344;28;20489;-84
2022/09/08 03:15:58;;;;;;;5.72;2.30;;;20.10;99.90;;;;;;5013883;28;20037;-84
2022/09/08 03:18:25;;;;;;;6.40;2.80;;;20.10;99.90;;;;;;5032195;28;20029;-83
2022/09/08 03:21:09;;;;;;;14.20;3.03;;;20.10;99.90;;;;;;5031769;28;20025;-84
2022/09/08 03:23:36;;;;;;;6.22;2.78;;;20.00;99.90;;;;;;5014169;28;20482;-84
2022/09/08 03:26:09;;;;;;;5.30;2.50;;;20.00;99.90;;;;;;5031453;28;20032;-83
2022/09/08 03:28:35;;;;;;;6.38;2.90;;;20.00;99.90;;;;;;5031991;28;20075;-84
2022/09/08 03:31:01;;;;;;;5.97;3.20;;;20.10;99.90;;;;;;5013887;28;20037;-84
2022/09/08 03:33:28;;;;;;;6.65;2.67;;;20.00;99.90;;;;;;5031766;28;20413;-84
2022/09/08 03:35:58;;;;;;;6.72;3.05;;;20.00;99.90;;;;;;5031194;28;20025;-84
2022/09/08 03:38:24;;;;;;;6.45;3.05;;;20.00;99.90;;;;;;5031532;28;20028;-84
2022/09/08 03:40:50;;;;;;;7.60;3.20;;;20.00;99.90;;;;;;5031344;28;20505;-84
2022/09/08 03:43:16;;;;;;;7.60;2.78;;;19.90;99.90;;;;;;5031522;28;20025;-84
2022/09/08 03:45:45;;;;;;;6.38;2.70;;;19.90;99.90;;;;;;5031243;28;20034;-84
2022/09/08 03:48:13;;;;;;;6.10;2.80;;;19.90;99.90;;;;;;5031528;28;20029;-83
2022/09/08 03:50:39;;;;;;;6.25;2.70;;;19.90;99.90;;;;;;5031146;28;20112;-84
2022/09/08 03:53:05;;;;;;;7.55;2.55;;;19.90;99.90;;;;;;5031270;28;20202;-84
2022/09/08 03:55:31;;;;;;;6.07;2.90;;;19.90;99.90;;;;;;5031432;28;20030;-84
2022/09/08 03:57:59;;;;;;;6.30;3.00;;;19.90;99.90;;;;;;5013355;28;20118;-84
2022/09/08 04:00:25;;;;;;;6.50;2.55;;;19.80;99.90;;;;;;5013574;28;20124;-84
2022/09/08 04:02:50;;;;;;;9.95;2.75;;;19.80;99.90;;;;;;5013196;28;20124;-84
2022/09/08 04:05:17;;;;;;;8.00;2.65;;;19.80;99.90;;;;;;4997036;28;20129;-83
2022/09/08 04:07:43;;;;;;;5.43;2.40;;;19.80;99.90;;;;;;4996621;28;20029;-83
2022/09/08 04:10:11;;;;;;;6.85;2.40;;;19.80;99.90;;;;;;4997089;28;20085;-84
2022/09/08 04:12:38;;;;;;;8.43;2.72;;;19.70;99.90;;;;;;5013339;28;20124;-84
2022/09/08 04:15:05;;;;;;;6.53;2.47;;;19.70;99.90;;;;;;5013068;28;20045;-84
2022/09/08 04:17:31;;;;;;;6.20;2.35;;;19.70;99.90;;;;;;4996719;28;20443;-84
2022/09/08 04:19:56;;;;;;;6.28;2.33;;;19.70;99.90;;;;;;5012958;28;20071;-84
2022/09/08 04:22:23;;;;;;;4.55;2.60;;;19.70;99.90;;;;;;5013144;28;20247;-84
2022/09/08 04:24:50;;;;;;;5.47;2.40;;;19.60;99.90;;;;;;4996720;28;20087;-83
2022/09/08 04:27:17;;;;;;;7.35;2.53;;;19.60;99.90;;;;;;5030590;28;20079;-84
2022/09/08 04:29:44;;;;;;;5.40;2.47;;;19.60;99.90;;;;;;5012849;28;20040;-84
2022/09/08 04:32:10;;;;;;;7.45;2.60;;;19.50;99.90;;;;;;5013119;28;20044;-84
2022/09/08 04:34:36;;;;;;;6.15;2.67;;;19.50;99.90;;;;;;4996371;28;20124;-83
2022/09/08 04:37:03;;;;;;;6.70;3.03;;;19.40;99.90;;;;;;5012769;28;20053;-84
2022/09/08 04:39:30;;;;;;;6.45;3.08;;;19.40;99.90;;;;;;4996442;28;20501;-84
2022/09/08 04:41:55;;;;;;;8.15;3.03;;;19.40;99.90;;;;;;5030552;28;20026;-84
2022/09/08 04:44:21;;;;;;;5.22;2.63;;;19.40;99.90;;;;;;5012970;28;20052;-84
2022/09/08 04:46:47;;;;;;;6.05;2.95;;;19.40;99.90;;;;;;4996664;28;20029;-84
2022/09/08 04:49:13;;;;;;;6.63;3.00;;;19.40;99.90;;;;;;5030334;28;20030;-84
2022/09/08 04:51:39;;;;;;;7.43;3.03;;;19.40;99.90;;;;;;5012894;28;20120;-84
2022/09/08 04:54:05;;;;;;;4.72;3.03;;;19.30;99.90;;;;;;5012826;28;20109;-84
2022/09/08 04:56:32;;;;;;;6.20;2.65;;;19.30;99.90;;;;;;5012611;28;20033;-84
2022/09/08 04:59:00;;;;;;;5.32;3.28;;;19.30;99.90;;;;;;5012841;28;20256;-84
2022/09/08 05:01:31;;;;;;;6.82;2.90;;;19.30;99.90;;;;;;5012842;28;20475;-84
2022/09/08 05:04:00;;;;;;;7.68;3.88;;;19.30;99.90;;;;;;5030437;28;20096;-84
2022/09/08 05:06:26;;;;;;;9.43;4.03;;;19.30;99.90;;;;;;5030627;28;20021;-84
2022/09/08 05:08:54;;;;;;;5.85;3.40;;;19.30;99.90;;;;;;5012818;28;20030;-84
2022/09/08 05:11:22;;;;;;;9.00;3.72;;;19.30;99.90;;;;;;5012646;28;20107;-84
2022/09/08 05:13:49;;;;;;;6.32;3.88;;;19.20;99.90;;;;;;5014195;28;20128;-84
2022/09/08 05:16:17;;;;;;;7.25;4.03;;;19.20;99.90;;;;;;5016122;28;20401;-84
2022/09/08 05:18:51;;;;;;;11.10;4.20;;;19.20;99.90;;;;;;5016341;28;20025;-84
2022/09/08 05:21:18;;;;;;;7.32;3.88;;;19.20;99.90;;;;;;5016467;28;20037;-83
2022/09/08 05:23:44;;;;;;;6.32;3.60;;;19.20;99.90;;;;;;5034130;28;20032;-84
2022/09/08 05:26:13;;;;;;;11.35;4.57;;;19.20;99.90;;;;;;5034063;28;20025;-84
2022/09/08 05:28:41;;;;;;;7.20;4.38;;;19.20;99.90;;;;;;5016190;28;20131;-83
2022/09/08 05:31:09;;;;;;;11.38;4.63;;;19.10;99.90;;;;;;5033857;28;20037;-84
2022/09/08 05:33:34;;;;;;;9.20;4.60;;;19.10;99.90;;;;;;5016150;28;20141;-83
2022/09/08 05:36:01;;;;;;;9.18;5.30;;;19.10;99.90;;;;;;5015942;28;20533;-84
2022/09/08 05:38:27;;;;;;;8.85;5.00;;;19.10;99.90;;;;;;5016104;28;20033;-84
2022/09/08 05:40:53;;;;;;;7.43;4.78;;;19.10;99.90;;;;;;5033710;28;20064;-84
2022/09/08 05:43:19;;;;;;;10.48;5.05;;;19.10;99.90;;;;;;5033658;28;20034;-84
2022/09/08 05:45:46;;;;;;;11.07;5.90;;;19.10;99.90;;;;;;4999296;28;20607;-83
2022/09/08 05:48:12;;;;;;;7.80;4.72;;;19.10;99.90;;;;;;5033743;28;20033;-84
2022/09/08 05:50:40;;;;;;;7.88;4.97;;;19.10;99.90;;;;;;5015773;28;20508;-84
2022/09/08 05:53:06;;;;;;;10.43;5.65;;;19.10;99.90;;;;;;5033507;28;20116;-84
2022/09/08 05:55:32;;;;;;;9.23;5.50;;;19.10;99.90;;;;;;4999429;28;20497;-84
2022/09/08 05:57:57;;;;;;;7.45;5.13;;;19.10;99.90;;;;;;5033314;28;20022;-83
2022/09/08 06:00:23;;;;;;;7.05;3.70;;;19.10;99.90;;;;;;5033413;28;20033;-84
2022/09/08 06:02:50;;;;;;;9.73;3.92;;;19.10;99.90;;;;;;5015663;28;20021;-84
2022/09/08 06:05:20;;;;;;;6.57;2.88;;;19.00;99.90;;;;;;5015440;28;20044;-84
2022/09/08 06:07:47;;;;;;;8.75;3.55;;;19.00;99.90;;;;;;5033324;28;20033;-84
2022/09/08 06:10:14;;;;;;;7.32;3.50;;;18.90;99.90;;;;;;5033102;28;20375;-83
2022/09/08 06:12:40;;;;;;;8.02;3.78;;;18.90;99.90;;;;;;4999167;28;20033;-83
2022/09/08 06:15:06;;;;;;;8.52;3.30;;;18.80;99.90;;;;;;5033196;28;20041;-84
2022/09/08 06:17:33;;;;;;;7.22;2.78;;;18.80;99.90;;;;;;5015249;28;20025;-84
2022/09/08 06:19:58;;;;;;;7.38;2.97;;;18.80;99.90;;;;;;4998788;28;20053;-84
2022/09/08 06:22:24;;;;;;;6.78;2.70;;;18.80;99.90;;;;;;5033252;28;20505;-84
2022/09/08 06:24:50;;;;;;;8.93;3.38;;;18.70;99.90;;;;;;5015168;28;20040;-84
2022/09/08 06:27:31;;;;;;;5.75;2.92;;;18.70;99.90;;;;;;5031395;28;20196;-83
2022/09/08 06:30:07;;;;;;;8.70;3.58;;;18.70;99.90;;;;;;5014907;28;20033;-84
2022/09/08 06:32:50;;;;;;;7.93;3.03;;;18.60;99.90;;;;;;5015364;28;20088;-83
2022/09/08 06:35:19;;;;;;;6.95;3.40;;;18.60;99.90;;;;;;5014909;28;20379;-84
2022/09/08 06:37:50;;;;;;;8.63;3.10;;;18.60;99.90;;;;;;5032516;28;20030;-84
2022/09/08 06:40:35;;;;;;;8.23;3.10;;;18.60;99.90;;;;;;5032628;28;20034;-84
2022/09/08 06:43:16;;;;;;;7.75;2.55;;;18.60;99.90;;;;;;5032603;28;20100;-83
2022/09/08 06:45:49;;;;;;;5.45;2.08;;;18.50;99.90;;;;;;5032381;28;20037;-83
2022/09/08 06:48:15;;;;;;;6.40;2.33;;;18.50;99.90;;;;;;5032544;28;20091;-83
2022/09/08 06:51:08;;;;;;;4.60;1.98;;;18.50;99.90;;;;;;5014702;28;20033;-84
2022/09/08 06:53:59;;;;;;;5.60;1.92;;;18.50;99.90;;;;;;5032727;28;20033;-84
2022/09/08 06:56:55;;;;;;;6.88;2.30;;;18.50;99.90;;;;;;5014376;28;20038;-84
2022/09/08 06:59:27;;;;;;;7.43;2.50;;;18.50;99.90;;;;;;5032116;28;20036;-84
2022/09/08 07:01:59;;;;;;;7.97;2.03;;;18.50;99.90;;;;;;5032291;28;20034;-84
2022/09/08 07:04:50;;;;;;;8.52;2.17;;;18.40;99.90;;;;;;5032068;28;20030;-84
2022/09/08 07:07:30;;;;;;;6.07;2.00;;;18.50;99.90;;;;;;5032244;28;20025;-84
2022/09/08 07:10:14;;;;;;;7.28;2.38;;;18.50;99.90;;;;;;5031935;28;20029;-84
2022/09/08 07:13:12;;;;;;;3.90;2.05;;;18.60;99.90;;;;;;5032232;28;20057;-83
2022/09/08 07:15:53;;;;;;;6.35;2.08;;;18.60;99.90;;;;;;5014164;28;20120;-83
2022/09/08 07:18:33;;;;;;;6.25;2.30;;;18.50;99.90;;;;;;5031882;28;20474;-83
2022/09/08 07:21:14;;;;;;;7.40;3.20;;;18.50;99.90;;;;;;5031996;28;20032;-84
2022/09/08 07:23:41;;;;;;;6.25;2.53;;;18.50;99.90;;;;;;5031723;28;20026;-84
2022/09/08 07:26:29;;;;;;;8.90;3.63;;;18.50;99.90;;;;;;5031801;28;20104;-83
2022/09/08 07:29:03;;;;;;;7.55;3.53;;;18.60;99.90;;;;;;5013970;28;20026;-83
2022/09/08 07:31:29;;;;;;;8.48;4.10;;;18.50;99.90;;;;;;5014070;28;20083;-83
2022/09/08 07:34:03;;;;;;;6.18;3.58;;;18.50;99.90;;;;;;5031671;28;20437;-84
2022/09/08 07:36:47;;;;;;;8.10;4.03;;;18.50;99.90;;;;;;5030797;28;20037;-83
2022/09/08 07:39:39;;;;;;;7.82;3.47;;;18.50;99.90;;;;;;5013655;28;20033;-83
2022/09/08 07:42:10;;;;;;;8.77;3.78;;;18.50;99.90;;;;;;5013927;28;20088;-83
2022/09/08 07:44:37;;;;;;;7.95;3.83;;;18.50;99.90;;;;;;5031549;28;20056;-84
2022/09/08 07:47:23;;;;;;;7.78;3.47;;;18.50;99.90;;;;;;5031257;28;20112;-83
2022/09/08 07:49:56;;;;;;;7.88;3.28;;;18.50;99.90;;;;;;5013427;28;20557;-83
2022/09/08 07:52:46;;;;;;;7.38;3.17;;;18.50;99.90;;;;;;5013663;28;20037;-83
2022/09/08 07:55:20;;;;;;;8.73;3.33;;;18.50;99.90;;;;;;5031396;28;20033;-83
2022/09/08 07:58:06;;;;;;;6.20;3.55;;;18.60;99.90;;;;;;5031318;28;20087;-83
2022/09/08 08:00:51;;;;;;;6.30;3.10;;;18.60;99.90;;;;;;5013235;28;20049;-83
2022/09/08 08:03:41;;;;;;;9.07;3.70;;;18.60;99.90;;;;;;5031165;28;20025;-84
2022/09/08 08:06:46;;;;;;;8.55;3.58;;;18.70;99.90;;;;;;5013260;28;20055;-83
2022/09/08 08:09:29;;;;;;;6.72;4.05;;;18.70;99.90;;;;;;5027080;28;20405;-84
2022/09/08 08:12:08;;;;;;;5.65;2.88;;;18.80;99.90;;;;;;5031353;28;20037;-84
2022/09/08 08:14:46;;;;;;;6.20;3.03;;;18.80;99.90;;;;;;5031018;28;20041;-83
2022/09/08 08:17:28;;;;;;;8.27;3.33;;;18.80;99.90;;;;;;5013280;28;20067;-84
2022/09/08 08:19:59;;;;;;;6.03;3.00;;;18.80;99.90;;;;;;5030582;28;20137;-84
2022/09/08 08:22:46;;;;;;;5.55;2.90;;;18.80;99.90;;;;;;5030920;28;20038;-83
2022/09/08 08:25:29;;;;;;;4.80;3.03;;;18.80;99.90;;;;;;5030938;28;20056;-83
2022/09/08 08:28:01;;;;;;;6.28;3.58;;;18.80;99.90;;;;;;5030688;28;20041;-84
2022/09/08 08:30:28;;;;;;;5.95;3.28;;;18.80;99.90;;;;;;5030731;28;20025;-83
2022/09/08 08:33:19;;;;;;;5.18;3.00;;;18.80;99.90;;;;;;5013194;28;20034;-83
2022/09/08 08:35:53;;;;;;;7.40;2.90;;;18.90;99.90;;;;;;5034769;23;20049;-81
2022/09/08 08:38:26;;;;;;;5.72;3.38;;;18.90;99.90;;;;;;5030974;28;20049;-81
2022/09/08 08:40:57;;;;;;;5.97;2.70;;;18.80;99.90;;;;;;5012483;28;20053;-81
2022/09/08 08:43:49;;;;;;;5.63;2.65;;;18.80;99.90;;;;;;5030824;28;20029;-81
2022/09/08 08:46:38;;;;;;;6.13;3.00;;;18.90;99.90;;;;;;5030911;28;20033;-81
2022/09/08 08:49:21;;;;;;;4.70;2.72;;;18.90;99.90;;;;;;5032707;28;20039;-81
2022/09/08 08:51:57;;;;;;;6.22;2.55;;;18.90;99.90;;;;;;5034849;28;20033;-82
2022/09/08 08:54:58;;;;;;;5.53;2.47;;;18.90;99.90;;;;;;5034897;28;20625;-82
2022/09/08 08:57:35;;;;;;;4.35;2.38;;;19.00;99.90;;;;;;5034765;28;20029;-83
2022/09/08 09:00:06;;;;;;;4.85;2.60;;;19.00;99.90;;;;;;5034667;28;20025;-82
2022/09/08 09:03:24;;;;;;;5.72;3.03;;;19.00;99.90;;;;;;5034964;28;20030;-82
2022/09/08 09:06:01;;;;;;;3.95;2.53;;;19.10;99.90;;;;;;4992833;28;20063;-82
2022/09/08 09:08:45;;;;;;;4.13;2.70;;;19.10;99.90;;;;;;5035175;28;20037;-82
2022/09/08 09:11:13;;;;;;;5.45;2.60;;;19.10;99.90;;;;;;5034905;28;20394;-82
2022/09/08 09:14:05;;;;;;;5.72;3.25;;;19.10;99.90;;;;;;5034739;28;20033;-82
2022/09/08 09:16:58;;;;;;;5.22;2.50;;;19.10;99.90;;;;;;5033097;28;20025;-82
2022/09/08 09:19:58;;;;;;;5.10;2.50;;;19.10;99.90;;;;;;5034721;28;20018;-82
2022/09/08 09:22:54;;;;;;;6.10;3.00;;;19.10;99.90;;;;;;5040288;28;20406;-82
2022/09/08 09:25:33;;;;;;;4.93;2.60;;;19.20;99.90;;;;;;5034143;28;20533;-82
2022/09/08 09:28:22;;;;;;;6.10;2.72;;;19.20;99.90;;;;;;5034276;28;20275;-82
2022/09/08 09:31:21;;;;;;;4.90;2.80;;;19.30;99.90;;;;;;5032882;28;20375;-82
2022/09/08 09:34:07;;;;;;;4.25;2.67;;;19.30;99.90;;;;;;5034092;28;20042;-82
2022/09/08 09:36:52;;;;;;;6.68;2.50;;;19.30;99.90;;;;;;5012475;28;20461;-83
2022/09/08 09:39:43;;;;;;;8.07;2.67;;;19.40;99.90;;;;;;5034041;28;20182;-82
2022/09/08 09:42:30;;;;;;;4.57;2.15;;;19.40;99.90;;;;;;5034120;28;20037;-82
2022/09/08 09:45:17;;;;;;;4.47;2.25;;;19.50;99.90;;;;;;5033803;28;20026;-82
2022/09/08 09:47:43;;;;;;;4.45;2.20;;;19.60;99.90;;;;;;5033646;28;20057;-82
2022/09/08 09:50:15;;;;;;;6.03;2.38;;;19.60;99.90;;;;;;5032332;28;20029;-83
2022/09/08 09:52:48;;;;;;;4.97;2.17;;;19.70;99.90;;;;;;5033745;28;20076;-82
2022/09/08 09:55:42;;;;;;;4.05;2.05;;;19.70;99.90;;;;;;5033901;28;20061;-82
2022/09/08 09:58:26;;;;;;;4.18;1.70;;;19.80;99.90;;;;;;5033644;28;20037;-82
2022/09/08 10:01:21;;;;;;;5.78;2.17;;;19.80;99.90;;;;;;5032993;28;20478;-82
2022/09/08 10:03:59;;;;;;;3.90;1.65;;;19.70;99.90;;;;;;5033613;28;20052;-82
2022/09/08 10:06:26;;;;;;;3.72;1.70;;;19.80;99.90;;;;;;5033141;28;20444;-82
2022/09/08 10:09:03;;;;;;;3.30;1.50;;;19.80;99.90;;;;;;5032289;28;20029;-82
2022/09/08 10:11:44;;;;;;;3.42;1.42;;;19.80;99.90;;;;;;5033900;28;20029;-82
2022/09/08 10:14:32;;;;;;;4.88;1.48;;;19.80;99.90;;;;;;5033285;28;20038;-82
2022/09/08 10:17:17;;;;;;;4.68;1.38;;;19.80;99.90;;;;;;5033165;28;20026;-81
2022/09/08 10:19:45;;;;;;;4.32;1.50;;;19.70;99.90;;;;;;5015165;28;20041;-82
2022/09/08 10:22:31;;;;;;;3.03;1.00;;;19.70;99.90;;;;;;5033219;28;20108;-82
2022/09/08 10:25:03;;;;;;;3.83;1.40;;;19.70;99.90;;;;;;5033187;28;20069;-82
2022/09/08 10:27:50;;;;;;;4.32;1.58;;;19.70;99.90;;;;;;5032895;28;20095;-82
2022/09/08 10:30:39;;;;;;;5.40;1.50;;;19.80;99.90;;;;;;5032724;28;20041;-82
2022/09/08 10:33:53;;;;;;;4.22;1.30;;;19.90;99.90;;;;;;5033108;28;20034;-81
2022/09/08 10:36:45;;;;;;;3.80;1.23;;;20.00;99.90;;;;;;4995337;28;20046;-82
2022/09/08 10:39:34;;;;;;;3.53;1.30;;;20.10;99.90;;;;;;5032640;28;20317;-82
2022/09/08 10:42:09;;;;;;;3.85;1.45;;;20.20;99.90;;;;;;5032697;28;20508;-82
2022/09/08 10:44:59;;;;;;;6.78;1.27;;;20.20;99.90;;;;;;5032687;28;20033;-82
2022/09/08 10:48:01;;;;;;;3.63;1.40;;;20.20;99.90;;;;;;5031328;28;20500;-82
2022/09/08 10:50:31;;;;;;;2.42;1.15;;;20.20;99.90;;;;;;4990386;28;20162;-82
2022/09/08 10:53:06;;;;;;;3.97;1.10;;;20.20;99.90;;;;;;5025339;28;20045;-82
2022/09/08 10:56:05;;;;;;;5.43;1.70;;;20.20;99.80;;;;;;5032315;28;20029;-82
2022/09/08 10:59:00;;;;;;;6.35;1.98;;;20.20;98.10;;;;;;5032292;28;20037;-82
2022/09/08 11:01:54;;;;;;;7.80;1.80;;;20.30;98.20;;;;;;5026698;28;20086;-82
2022/09/08 11:04:45;;;;;;;3.38;1.10;;;20.30;97.80;;;;;;5032277;28;20037;-82
2022/09/08 11:07:33;;;;;;;2.95;1.23;;;20.40;96.90;;;;;;5032095;28;20488;-82
2022/09/08 11:10:30;;;;;;;5.70;1.55;;;20.40;97.30;;;;;;5032112;28;20034;-82
2022/09/08 11:13:22;;;;;;;4.13;1.25;;;20.40;97.10;;;;;;5031827;28;20108;-82
2022/09/08 11:16:15;;;;;;;4.60;1.05;;;20.40;97.00;;;;;;5032199;28;20033;-82
2022/09/08 11:18:43;;;;;;;3.20;1.10;;;20.40;97.10;;;;;;5031756;28;20099;-82
2022/09/08 11:21:30;;;;;;;2.63;1.20;;;20.40;97.10;;;;;;5032041;28;20033;-82
2022/09/08 11:24:07;;;;;;;3.00;1.40;;;20.30;96.90;;;;;;5031902;28;20037;-82
2022/09/08 11:26:48;;;;;;;2.80;1.00;;;20.30;97.00;;;;;;5031647;28;20451;-82
2022/09/08 11:29:17;;;;;;;2.17;0.70;;;20.40;97.00;;;;;;5031778;28;20061;-82
2022/09/08 11:32:11;;;;;;;2.60;0.80;;;20.40;97.00;;;;;;5031780;28;20041;-82
2022/09/08 11:35:12;;;;;;;3.95;0.82;;;20.40;97.10;;;;;;5031574;28;20033;-82
2022/09/08 11:37:48;;;;;;;3.42;1.00;;;20.50;95.90;;;;;;5031518;28;20052;-82
2022/09/08 11:40:32;;;;;;;3.60;0.90;;;20.60;95.60;;;;;;5031415;28;20032;-82
2022/09/08 11:43:32;;;;;;;3.80;1.20;;;20.70;95.00;;;;;;5031579;28;20048;-82
2022/09/08 11:46:20;;;;;;;2.50;1.05;;;20.70;95.10;;;;;;5030018;28;20033;-82
2022/09/08 11:49:30;;;;;;;4.80;0.80;;;20.70;95.10;;;;;;5031279;28;20112;-82
2022/09/08 11:52:21;;;;;;;2.08;0.90;;;20.70;94.80;;;;;;5015228;28;20441;-82
2022/09/08 11:55:25;;;;;;;5.72;0.93;;;20.70;95.00;;;;;;5025614;28;20482;-82
2022/09/08 11:57:53;;;;;;;2.90;0.70;;;20.70;95.40;;;;;;5031345;28;20044;-82
2022/09/08 12:00:42;;;;;;;3.10;1.17;;;20.80;94.90;;;;;;5031149;28;20030;-82
2022/09/08 12:03:27;;;;;;;2.10;0.65;;;20.90;94.70;;;;;;5009567;28;20459;-82
2022/09/08 12:05:52;;;;;;;3.55;1.00;;;21.00;94.60;;;;;;5030836;28;20073;-82
2022/09/08 12:08:36;;;;;;;2.78;0.90;;;21.10;94.20;;;;;;5031382;28;20107;-82
2022/09/08 12:11:39;;;;;;;4.03;0.75;;;21.10;94.30;;;;;;5030186;28;20033;-82
2022/09/08 12:14:25;;;;;;;2.83;0.85;;;21.10;94.00;;;;;;5031363;28;20030;-82
2022/09/08 12:17:12;;;;;;;3.58;1.08;;;21.10;94.10;;;;;;5031218;28;20053;-82
2022/09/08 12:20:03;;;;;;;5.78;1.40;;;21.10;94.10;;;;;;5037084;28;20026;-82
2022/09/08 12:22:59;;;;;;;5.32;1.27;;;21.10;93.60;;;;;;5029593;28;20394;-82
2022/09/08 12:25:40;;;;;;;3.03;1.00;;;21.20;92.90;;;;;;5030739;28;20043;-82
2022/09/08 12:28:30;;;;;;;4.68;1.08;;;21.30;92.90;;;;;;5030928;28;20093;-82
2022/09/08 12:31:19;;;;;;;2.35;0.60;;;21.30;92.80;;;;;;5030615;28;20037;-82
2022/09/08 12:34:10;;;;;;;4.28;1.80;;;21.40;91.60;;;;;;5030692;28;20126;-82
2022/09/08 12:36:46;;;;;;;3.00;1.23;;;21.40;91.70;;;;;;5030378;28;20112;-82
2022/09/08 12:39:52;;;;;;;1.95;0.80;;;21.40;92.30;;;;;;5030563;28;20025;-82
2022/09/08 12:42:32;;;;;;;3.95;0.80;;;21.40;92.30;;;;;;5014868;28;20133;-82
2022/09/08 12:45:24;;;;;;;3.30;0.80;;;21.40;91.70;;;;;;5030596;28;20101;-82
2022/09/08 12:47:57;;;;;;;2.85;0.80;;;21.30;91.60;;;;;;5028270;28;20037;-82
2022/09/08 12:50:37;;;;;;;4.70;1.00;;;21.30;92.00;;;;;;5030748;28;20033;-82
2022/09/08 12:53:11;;;;;;;3.40;0.75;;;21.30;91.90;;;;;;5030685;28;20112;-82
2022/09/08 12:56:02;;;;;;;2.92;0.88;;;21.40;92.30;;;;;;5030263;28;20072;-82
2022/09/08 12:58:37;;;;;;;3.50;1.00;;;21.40;92.10;;;;;;5030598;28;20064;-82
2022/09/08 13:01:21;;;;;;;4.60;1.35;;;21.40;92.20;;;;;;5029272;28;20474;-82
2022/09/08 13:03:47;;;;;;;4.43;1.60;;;21.40;92.50;;;;;;5030553;28;20036;-82
2022/09/08 13:06:32;;;;;;;5.13;1.55;;;21.40;92.60;;;;;;5030108;28;20029;-82
2022/09/08 13:09:19;;;;;;;3.42;1.00;;;21.40;92.80;;;;;;5030533;28;20067;-82
2022/09/08 13:12:21;;;;;;;2.97;1.10;;;21.50;92.70;;;;;;5030520;28;20048;-82
2022/09/08 13:15:05;;;;;;;3.60;1.23;;;21.60;92.80;;;;;;5030427;28;20112;-82
2022/09/08 13:17:46;;;;;;;3.40;1.02;;;21.60;92.30;;;;;;5030218;28;20053;-82
2022/09/08 13:20:34;;;;;;;1.88;0.77;;;21.70;92.20;;;;;;5028872;28;20030;-82
2022/09/08 13:23:12;;;;;;;3.20;1.38;;;21.70;91.10;;;;;;5030221;28;20021;-82
2022/09/08 13:25:44;;;;;;;3.28;0.93;;;21.70;90.80;;;;;;5045542;28;20426;-82
2022/09/08 13:28:16;;;;;;;3.70;1.20;;;21.80;90.30;;;;;;5030524;28;20037;-82
2022/09/08 13:31:01;;;;;;;4.18;1.10;;;21.80;90.00;;;;;;5029872;28;20478;-82
2022/09/08 13:33:53;;;;;;;2.92;0.73;;;21.90;89.20;;;;;;5030252;28;20336;-82
2022/09/08 13:36:35;;;;;;;3.28;0.82;;;21.90;89.40;;;;;;5033609;28;20051;-82